Time;durP1;ratioP1;P1;durP2;ratioP2;P2;SDS_P1;SDS_P2;PMS_P1;PMS_P2;Temp;Humidity;BMP_temperature;BMP_pressure;BME280_temperature;BME280_humidity;BME280_pressure;Samples;Min_cycle;Max_cycle;Signal;HPM_P1;HPM_P2
2023/08/16 00:02:24;;;;;;;4.13;1.73;;;21.20;65.70;;;;;;5049445;28;20049;-67
2023/08/16 00:04:50;;;;;;;6.80;1.98;;;21.20;65.80;;;;;;5034164;28;20474;-67
2023/08/16 00:07:16;;;;;;;4.32;1.75;;;21.20;65.80;;;;;;5054067;28;20415;-67
2023/08/16 00:09:42;;;;;;;5.72;1.95;;;21.10;65.70;;;;;;5054005;28;20033;-67
2023/08/16 00:12:08;;;;;;;5.70;1.90;;;21.10;65.70;;;;;;5048754;28;20040;-66
2023/08/16 00:14:34;;;;;;;5.28;1.80;;;21.10;65.70;;;;;;5053600;28;20033;-67
2023/08/16 00:16:59;;;;;;;3.47;1.50;;;21.00;65.70;;;;;;5048334;28;20029;-67
2023/08/16 00:19:25;;;;;;;6.13;1.92;;;21.00;65.80;;;;;;5043228;28;20057;-67
2023/08/16 00:21:51;;;;;;;4.72;1.52;;;21.00;65.90;;;;;;5048950;28;20457;-67
2023/08/16 00:24:17;;;;;;;6.18;1.95;;;21.00;66.10;;;;;;5053183;28;20036;-67
2023/08/16 00:26:43;;;;;;;4.32;1.90;;;21.00;66.20;;;;;;5052101;28;20473;-67
2023/08/16 00:29:09;;;;;;;4.20;1.65;;;20.90;66.20;;;;;;5052811;28;20122;-67
2023/08/16 00:31:34;;;;;;;5.70;1.70;;;20.90;66.40;;;;;;5052221;28;20453;-67
2023/08/16 00:34:00;;;;;;;5.97;1.92;;;20.90;66.50;;;;;;5053098;28;20045;-67
2023/08/16 00:36:26;;;;;;;4.72;1.52;;;20.90;66.50;;;;;;5045142;28;20108;-67
2023/08/16 00:38:52;;;;;;;10.13;2.15;;;20.90;66.40;;;;;;5032374;28;20366;-67
2023/08/16 00:41:19;;;;;;;5.65;1.70;;;21.00;66.30;;;;;;5049461;28;20022;-67
2023/08/16 00:43:44;;;;;;;4.28;1.80;;;21.00;66.20;;;;;;5052493;28;20429;-67
2023/08/16 00:46:12;;;;;;;6.70;1.98;;;21.00;66.10;;;;;;5049987;28;20036;-67
2023/08/16 00:48:42;;;;;;;7.07;1.80;;;21.00;65.90;;;;;;5048626;28;20036;-67
2023/08/16 00:51:09;;;;;;;4.63;1.70;;;21.00;65.70;;;;;;5040589;28;20419;-67
2023/08/16 00:53:37;;;;;;;5.13;2.13;;;21.00;65.70;;;;;;5044590;28;20036;-67
2023/08/16 00:56:04;;;;;;;6.72;2.13;;;21.00;65.70;;;;;;5049751;28;20017;-67
2023/08/16 00:58:30;;;;;;;6.35;2.25;;;21.00;65.50;;;;;;5053887;28;20029;-67
2023/08/16 01:00:56;;;;;;;7.22;2.28;;;21.00;65.50;;;;;;5050335;28;20086;-66
2023/08/16 01:03:23;;;;;;;6.10;2.20;;;21.00;65.50;;;;;;5048405;28;20363;-67
2023/08/16 01:05:49;;;;;;;5.30;2.38;;;21.00;65.50;;;;;;5069019;28;20030;-67
2023/08/16 01:08:16;;;;;;;6.20;2.15;;;21.00;65.50;;;;;;5065958;28;20454;-67
2023/08/16 01:10:54;;;;;;;7.45;2.45;;;21.00;65.60;;;;;;5038615;28;20025;-66
2023/08/16 01:13:43;;;;;;;5.30;2.30;;;21.00;65.60;;;;;;5049869;28;20040;-68
2023/08/16 01:16:10;;;;;;;6.65;2.40;;;21.00;65.60;;;;;;5054152;28;20443;-67
2023/08/16 01:18:41;;;;;;;6.00;2.63;;;21.00;65.70;;;;;;5049778;28;20106;-67
2023/08/16 01:21:08;;;;;;;8.43;2.72;;;21.00;65.70;;;;;;5053307;28;20040;-67
2023/08/16 01:23:59;;;;;;;6.30;2.33;;;21.00;65.70;;;;;;5053674;28;20035;-67
2023/08/16 01:26:34;;;;;;;6.05;2.13;;;21.00;65.60;;;;;;5043386;28;20045;-67
2023/08/16 01:29:02;;;;;;;6.28;2.60;;;21.00;65.70;;;;;;5055874;28;20033;-67
2023/08/16 01:31:28;;;;;;;7.43;2.38;;;21.00;65.60;;;;;;5051251;28;20057;-67
2023/08/16 01:33:53;;;;;;;5.93;2.47;;;21.00;65.60;;;;;;5044800;28;20140;-67
2023/08/16 01:36:19;;;;;;;4.68;2.35;;;21.00;65.60;;;;;;5039082;28;20080;-67
2023/08/16 01:38:46;;;;;;;4.70;1.95;;;21.00;65.80;;;;;;5051739;28;20036;-67
2023/08/16 01:41:32;;;;;;;4.95;1.92;;;20.90;65.80;;;;;;5051245;28;20104;-67
2023/08/16 01:43:58;;;;;;;5.70;2.10;;;20.90;65.80;;;;;;5052385;28;20105;-67
2023/08/16 01:46:26;;;;;;;7.47;2.55;;;20.90;65.90;;;;;;5043303;28;20028;-67
2023/08/16 01:48:53;;;;;;;7.95;2.80;;;20.90;65.80;;;;;;5034830;28;20025;-67
2023/08/16 01:51:20;;;;;;;9.68;4.00;;;20.90;65.70;;;;;;5049960;28;20404;-67
2023/08/16 01:53:53;;;;;;;8.18;3.58;;;20.90;65.80;;;;;;5054898;28;20029;-67
2023/08/16 01:56:20;;;;;;;7.78;3.45;;;20.90;65.80;;;;;;5040704;28;20051;-67
2023/08/16 01:58:47;;;;;;;7.65;3.28;;;20.90;65.90;;;;;;5046968;28;20353;-67
2023/08/16 02:01:14;;;;;;;5.90;2.20;;;20.90;65.90;;;;;;5040290;28;20020;-67
2023/08/16 02:03:40;;;;;;;6.60;2.30;;;20.90;66.00;;;;;;5050112;28;20420;-67
2023/08/16 02:06:05;;;;;;;5.97;2.33;;;20.90;66.30;;;;;;5044474;28;20037;-67
2023/08/16 02:08:32;;;;;;;6.40;1.90;;;20.90;66.10;;;;;;5054642;28;20025;-67
2023/08/16 02:10:58;;;;;;;6.93;2.67;;;20.90;65.90;;;;;;5056098;28;20033;-67
2023/08/16 02:13:26;;;;;;;5.63;2.00;;;20.90;65.90;;;;;;5039490;28;20112;-67
2023/08/16 02:16:02;;;;;;;6.15;2.00;;;20.90;65.90;;;;;;5037424;28;20501;-67
2023/08/16 02:18:29;;;;;;;7.32;2.40;;;20.90;65.90;;;;;;5052226;28;20039;-67
2023/08/16 02:20:56;;;;;;;5.07;1.80;;;20.80;65.90;;;;;;5054806;28;20028;-67
2023/08/16 02:23:22;;;;;;;5.10;1.90;;;20.90;66.10;;;;;;5044716;28;20111;-67
2023/08/16 02:25:48;;;;;;;6.30;2.00;;;20.80;66.10;;;;;;5055735;28;20120;-67
2023/08/16 02:28:13;;;;;;;4.55;2.25;;;20.90;66.10;;;;;;5037599;28;20033;-67
2023/08/16 02:30:39;;;;;;;6.03;2.40;;;20.80;65.90;;;;;;5055613;28;20111;-67
2023/08/16 02:33:06;;;;;;;4.80;2.10;;;20.80;65.80;;;;;;5051743;28;20040;-67
2023/08/16 02:35:31;;;;;;;5.88;1.90;;;20.80;65.80;;;;;;5055548;28;20040;-67
2023/08/16 02:37:58;;;;;;;8.13;2.38;;;20.80;65.90;;;;;;5055264;28;20404;-67
2023/08/16 02:40:23;;;;;;;4.78;1.98;;;20.80;66.10;;;;;;5054429;28;20029;-67
2023/08/16 02:42:50;;;;;;;6.85;2.17;;;20.80;66.20;;;;;;5052481;28;20033;-67
2023/08/16 02:45:17;;;;;;;4.97;2.55;;;20.80;66.30;;;;;;5050441;28;20031;-67
2023/08/16 02:47:45;;;;;;;5.65;2.10;;;20.80;66.40;;;;;;5055070;28;20086;-67
2023/08/16 02:50:11;;;;;;;5.57;2.38;;;20.80;66.40;;;;;;5054497;28;20456;-67
2023/08/16 02:52:37;;;;;;;6.30;3.00;;;20.80;66.40;;;;;;5056007;28;20116;-67
2023/08/16 02:55:04;;;;;;;6.35;2.40;;;20.80;66.50;;;;;;5051970;28;20052;-67
2023/08/16 02:57:29;;;;;;;7.25;2.63;;;20.70;66.60;;;;;;5054227;28;20040;-67
2023/08/16 02:59:55;;;;;;;5.53;2.53;;;20.70;66.70;;;;;;5053971;28;20017;-67
2023/08/16 03:02:21;;;;;;;6.13;2.45;;;20.70;66.60;;;;;;5054483;28;20026;-67
2023/08/16 03:04:47;;;;;;;5.53;2.70;;;20.70;66.70;;;;;;5063621;28;20447;-67
2023/08/16 03:07:13;;;;;;;7.15;3.00;;;20.70;67.00;;;;;;5026883;28;20032;-67
2023/08/16 03:09:39;;;;;;;7.47;2.83;;;20.60;66.90;;;;;;5053122;28;20458;-67
2023/08/16 03:12:06;;;;;;;6.70;2.92;;;20.60;67.20;;;;;;5038385;28;20052;-67
2023/08/16 03:14:32;;;;;;;5.70;2.70;;;20.60;67.30;;;;;;5040633;28;20120;-67
2023/08/16 03:16:58;;;;;;;7.40;2.70;;;20.60;67.30;;;;;;5050847;28;20414;-67
2023/08/16 03:19:24;;;;;;;7.00;2.90;;;20.60;67.30;;;;;;5033347;28;20360;-67
2023/08/16 03:21:51;;;;;;;7.70;2.70;;;20.60;67.30;;;;;;5054292;28;20025;-67
2023/08/16 03:24:16;;;;;;;7.57;3.13;;;20.60;67.40;;;;;;5037412;28;20021;-67
2023/08/16 03:26:42;;;;;;;7.10;2.90;;;20.60;67.50;;;;;;5055485;28;20033;-67
2023/08/16 03:29:08;;;;;;;7.30;2.72;;;20.50;67.60;;;;;;5047243;28;20052;-67
2023/08/16 03:31:36;;;;;;;6.93;2.90;;;20.50;67.70;;;;;;5055501;28;20044;-67
2023/08/16 03:34:04;;;;;;;6.57;2.60;;;20.50;68.00;;;;;;5026489;28;20123;-67
2023/08/16 03:36:30;;;;;;;7.10;2.65;;;20.50;68.00;;;;;;5021954;28;20029;-67
2023/08/16 03:38:58;;;;;;;7.00;2.80;;;20.50;68.00;;;;;;5046940;28;20527;-67
2023/08/16 03:41:24;;;;;;;5.90;2.38;;;20.50;68.00;;;;;;5041826;28;20036;-67
2023/08/16 03:43:49;;;;;;;5.05;2.17;;;20.50;68.10;;;;;;5052694;28;20029;-67
2023/08/16 03:46:15;;;;;;;5.43;2.30;;;20.50;68.20;;;;;;5046182;28;20079;-67
2023/08/16 03:48:48;;;;;;;7.00;2.80;;;20.50;68.30;;;;;;5066999;28;20410;-67
2023/08/16 03:51:13;;;;;;;4.63;2.00;;;20.50;68.40;;;;;;5032790;28;20115;-67
2023/08/16 03:53:39;;;;;;;6.43;2.47;;;20.50;68.40;;;;;;5054012;28;20025;-67
2023/08/16 03:56:05;;;;;;;7.55;3.38;;;20.50;68.50;;;;;;5047799;28;20024;-67
2023/08/16 03:58:32;;;;;;;6.32;2.90;;;20.50;68.40;;;;;;5053584;28;20045;-67
2023/08/16 04:00:58;;;;;;;8.80;3.13;;;20.50;68.40;;;;;;5055756;28;20426;-67
2023/08/16 04:03:24;;;;;;;5.80;2.80;;;20.50;68.40;;;;;;5057099;28;20508;-67
2023/08/16 04:05:50;;;;;;;6.93;3.22;;;20.50;68.30;;;;;;5057449;28;20116;-67
2023/08/16 04:08:15;;;;;;;6.90;2.78;;;20.50;68.40;;;;;;5052982;28;20370;-67
2023/08/16 04:10:41;;;;;;;7.38;3.45;;;20.40;68.40;;;;;;5051048;28;20072;-67
2023/08/16 04:13:08;;;;;;;7.10;3.40;;;20.40;68.80;;;;;;5050408;28;20106;-67
2023/08/16 04:15:33;;;;;;;7.00;3.25;;;20.40;68.60;;;;;;5070447;28;20454;-67
2023/08/16 04:17:59;;;;;;;9.30;3.60;;;20.40;68.60;;;;;;5064595;28;20044;-67
2023/08/16 04:20:25;;;;;;;8.07;3.28;;;20.40;68.70;;;;;;5057867;28;20028;-67
2023/08/16 04:22:51;;;;;;;7.80;3.45;;;20.40;68.70;;;;;;5050157;28;20041;-67
2023/08/16 04:25:17;;;;;;;6.25;3.15;;;20.40;68.80;;;;;;5055568;28;20063;-67
2023/08/16 04:27:44;;;;;;;7.05;3.20;;;20.40;68.80;;;;;;5069649;28;20053;-67
2023/08/16 04:30:10;;;;;;;6.97;3.35;;;20.40;68.90;;;;;;5059769;28;20067;-67
2023/08/16 04:32:37;;;;;;;7.25;3.10;;;20.40;69.00;;;;;;5050018;28;20021;-67
2023/08/16 04:35:03;;;;;;;9.93;2.95;;;20.40;69.10;;;;;;5049740;28;20343;-67
2023/08/16 04:37:29;;;;;;;7.47;2.75;;;20.40;69.10;;;;;;5048990;28;20036;-67
2023/08/16 04:39:56;;;;;;;6.85;2.55;;;20.40;69.10;;;;;;5045645;28;20082;-67
2023/08/16 04:42:21;;;;;;;10.35;3.30;;;20.40;69.10;;;;;;5061152;28;20125;-67
2023/08/16 04:44:48;;;;;;;7.60;2.88;;;20.30;69.10;;;;;;5050348;28;20021;-68
2023/08/16 04:47:14;;;;;;;5.63;2.90;;;20.40;69.10;;;;;;5049324;28;20451;-68
2023/08/16 04:49:39;;;;;;;9.05;3.15;;;20.40;69.20;;;;;;5049502;28;20025;-67
2023/08/16 04:52:06;;;;;;;7.63;3.08;;;20.30;69.80;;;;;;5049654;28;20033;-68
2023/08/16 04:54:32;;;;;;;7.75;3.10;;;20.30;69.20;;;;;;5048507;28;20018;-68
2023/08/16 04:56:58;;;;;;;5.60;2.67;;;20.30;69.20;;;;;;5053506;28;20378;-67
2023/08/16 04:59:24;;;;;;;7.00;2.70;;;20.30;69.20;;;;;;5035767;28;20026;-68
2023/08/16 05:01:50;;;;;;;7.45;3.38;;;20.30;69.40;;;;;;5052537;28;20025;-67
2023/08/16 05:04:16;;;;;;;7.32;3.00;;;20.20;69.30;;;;;;5041161;28;20490;-67
2023/08/16 05:06:42;;;;;;;7.68;3.15;;;20.30;69.40;;;;;;5035916;28;20044;-68
2023/08/16 05:09:08;;;;;;;6.57;3.30;;;20.30;69.40;;;;;;5052922;28;20041;-68
2023/08/16 05:11:35;;;;;;;7.75;2.95;;;20.30;69.50;;;;;;5036527;28;20030;-68
2023/08/16 05:14:01;;;;;;;7.32;2.95;;;20.20;69.40;;;;;;5035149;28;20387;-67
2023/08/16 05:16:27;;;;;;;9.00;3.10;;;20.20;69.50;;;;;;5036147;28;20027;-68
2023/08/16 05:18:52;;;;;;;8.18;3.33;;;20.20;69.60;;;;;;5036334;28;20022;-67
2023/08/16 05:21:19;;;;;;;7.35;2.95;;;20.20;69.70;;;;;;5036303;28;20072;-67
2023/08/16 05:23:45;;;;;;;7.60;3.42;;;20.20;69.90;;;;;;5035509;28;20411;-68
2023/08/16 05:26:11;;;;;;;7.47;3.85;;;20.20;69.80;;;;;;5052890;28;20124;-67
2023/08/16 05:28:37;;;;;;;7.53;3.88;;;20.20;69.70;;;;;;5038805;28;20037;-67
2023/08/16 05:31:20;;;;;;;8.02;3.80;;;20.20;69.70;;;;;;5041519;28;20145;-68
2023/08/16 05:33:46;;;;;;;9.32;3.53;;;20.20;69.70;;;;;;5042314;28;20082;-67
2023/08/16 05:36:12;;;;;;;8.15;3.63;;;20.20;69.70;;;;;;5041302;28;20029;-67
2023/08/16 05:38:38;;;;;;;7.97;4.55;;;20.20;69.70;;;;;;5044903;28;20110;-68
2023/08/16 05:41:03;;;;;;;9.20;4.10;;;20.20;69.70;;;;;;5038941;28;20092;-67
2023/08/16 05:43:30;;;;;;;9.40;3.88;;;20.20;69.80;;;;;;5033775;28;20467;-66
2023/08/16 05:45:56;;;;;;;8.93;3.88;;;20.20;69.80;;;;;;5033708;28;20037;-67
2023/08/16 05:48:21;;;;;;;8.00;4.05;;;20.30;69.90;;;;;;5028127;28;20045;-66
2023/08/16 05:50:47;;;;;;;11.20;4.30;;;20.30;69.80;;;;;;5020385;28;20034;-66
2023/08/16 05:53:13;;;;;;;7.35;3.90;;;20.40;69.80;;;;;;5003536;28;20113;-66
2023/08/16 05:55:39;;;;;;;8.70;3.90;;;20.40;69.80;;;;;;5021575;28;20034;-66
2023/08/16 05:58:04;;;;;;;7.07;3.22;;;20.40;69.80;;;;;;5040796;28;20075;-66
2023/08/16 06:00:30;;;;;;;12.25;3.78;;;20.40;69.80;;;;;;5042026;28;20133;-66
2023/08/16 06:02:56;;;;;;;7.72;3.75;;;20.50;69.80;;;;;;5034139;28;20025;-66
2023/08/16 06:05:22;;;;;;;7.35;3.33;;;20.50;69.80;;;;;;5036350;28;20507;-66
2023/08/16 06:07:48;;;;;;;9.75;3.80;;;20.60;69.70;;;;;;5022325;28;20043;-67
2023/08/16 06:10:14;;;;;;;6.30;3.20;;;20.70;69.60;;;;;;5040625;28;20094;-67
2023/08/16 06:12:39;;;;;;;7.72;3.38;;;20.70;69.40;;;;;;5033731;28;20037;-67
2023/08/16 06:15:11;;;;;;;7.78;3.45;;;20.80;69.40;;;;;;5035963;28;20028;-66
2023/08/16 06:17:38;;;;;;;10.35;3.58;;;20.80;69.50;;;;;;5042589;28;20063;-67
2023/08/16 06:20:05;;;;;;;8.98;3.55;;;20.90;69.40;;;;;;5038553;28;20025;-67
2023/08/16 06:22:33;;;;;;;5.53;2.80;;;20.90;69.40;;;;;;5040373;28;20040;-67
2023/08/16 06:24:58;;;;;;;7.82;3.08;;;20.90;69.40;;;;;;5039908;28;20032;-67
2023/08/16 06:27:24;;;;;;;8.07;2.92;;;20.90;69.40;;;;;;5039470;28;20030;-67
2023/08/16 06:29:50;;;;;;;7.63;3.03;;;20.90;69.50;;;;;;5039592;28;20053;-66
2023/08/16 06:32:16;;;;;;;5.63;2.60;;;20.90;69.50;;;;;;5041723;28;20029;-66
2023/08/16 06:34:42;;;;;;;8.30;3.05;;;20.90;69.50;;;;;;5039222;28;20025;-68
2023/08/16 06:37:07;;;;;;;7.25;2.95;;;21.00;69.40;;;;;;5063672;28;20454;-67
2023/08/16 06:39:33;;;;;;;6.55;2.92;;;21.00;69.30;;;;;;5036404;28;20412;-67
2023/08/16 06:41:59;;;;;;;7.63;3.13;;;21.10;69.30;;;;;;5014826;28;20124;-66
2023/08/16 06:44:26;;;;;;;5.65;2.70;;;21.20;69.90;;;;;;5036974;28;20498;-68
2023/08/16 06:46:51;;;;;;;5.85;2.67;;;21.20;69.10;;;;;;5036278;28;20162;-67
2023/08/16 06:49:17;;;;;;;6.82;2.65;;;21.30;69.20;;;;;;5068618;28;20032;-69
2023/08/16 06:51:43;;;;;;;5.90;2.38;;;21.30;69.10;;;;;;5015504;28;20027;-70
2023/08/16 06:54:09;;;;;;;6.20;2.60;;;21.30;69.00;;;;;;5042469;28;20457;-69
2023/08/16 06:56:35;;;;;;;5.78;2.28;;;21.40;69.10;;;;;;5040753;28;20057;-71
2023/08/16 06:59:01;;;;;;;6.63;2.58;;;21.40;69.00;;;;;;5027291;28;20063;-71
2023/08/16 07:01:27;;;;;;;6.32;2.40;;;21.50;68.90;;;;;;5031493;28;20423;-67
2023/08/16 07:03:53;;;;;;;5.72;2.60;;;21.50;68.90;;;;;;5037392;28;20056;-67
2023/08/16 07:06:19;;;;;;;5.00;2.15;;;21.50;68.80;;;;;;5024123;28;20053;-68
2023/08/16 07:08:45;;;;;;;5.78;2.60;;;21.60;68.80;;;;;;5035008;28;20136;-68
2023/08/16 07:11:10;;;;;;;6.10;2.63;;;21.60;68.80;;;;;;5033638;28;20100;-68
2023/08/16 07:13:36;;;;;;;7.38;2.67;;;21.70;68.70;;;;;;5041537;28;20029;-68
2023/08/16 07:16:02;;;;;;;7.55;2.72;;;21.70;68.50;;;;;;5034135;28;20025;-68
2023/08/16 07:18:28;;;;;;;6.50;2.83;;;21.80;68.30;;;;;;5036142;28;20419;-68
2023/08/16 07:20:53;;;;;;;8.90;2.85;;;21.80;68.10;;;;;;5034772;28;20429;-67
2023/08/16 07:23:19;;;;;;;6.15;2.40;;;21.90;67.90;;;;;;5031227;28;20120;-67
2023/08/16 07:25:45;;;;;;;6.15;2.22;;;22.00;67.70;;;;;;5034527;28;20086;-68
2023/08/16 07:28:11;;;;;;;4.80;1.98;;;22.20;67.30;;;;;;5050922;28;21794;-67
2023/08/16 07:30:37;;;;;;;5.78;2.13;;;22.40;66.70;;;;;;5037810;28;20029;-67
2023/08/16 07:33:04;;;;;;;4.88;1.83;;;22.50;66.20;;;;;;5034699;28;20029;-67
2023/08/16 07:35:30;;;;;;;6.88;2.28;;;22.50;66.10;;;;;;5033651;28;20026;-67
2023/08/16 07:37:56;;;;;;;6.53;1.95;;;22.50;66.20;;;;;;5037558;28;20035;-67
2023/08/16 07:40:22;;;;;;;6.38;2.15;;;22.40;66.20;;;;;;5037489;28;20339;-67
2023/08/16 07:42:48;;;;;;;7.43;2.40;;;22.30;66.30;;;;;;5031477;28;20429;-67
2023/08/16 07:45:14;;;;;;;6.18;2.38;;;22.30;66.60;;;;;;5031510;28;20413;-69
2023/08/16 07:47:39;;;;;;;8.30;2.50;;;22.30;66.60;;;;;;5039201;28;20037;-67
2023/08/16 07:50:06;;;;;;;5.85;1.90;;;22.30;66.50;;;;;;5038083;28;20017;-69
2023/08/16 07:52:31;;;;;;;4.85;2.13;;;22.30;66.60;;;;;;5033108;28;20056;-69
2023/08/16 07:54:57;;;;;;;3.95;1.88;;;22.30;66.70;;;;;;5033832;28;20034;-68
2023/08/16 07:57:23;;;;;;;6.82;2.28;;;22.30;66.60;;;;;;5032747;28;20109;-68
2023/08/16 07:59:49;;;;;;;4.90;2.13;;;22.30;66.40;;;;;;5037906;28;20037;-68
2023/08/16 08:02:14;;;;;;;7.25;2.67;;;22.30;66.30;;;;;;5018869;28;20041;-68
2023/08/16 08:04:40;;;;;;;6.85;2.15;;;22.40;66.00;;;;;;5031692;28;20030;-68
2023/08/16 08:07:06;;;;;;;7.78;1.90;;;22.60;65.60;;;;;;5032476;28;20439;-68
2023/08/16 08:09:31;;;;;;;5.07;1.90;;;23.00;65.30;;;;;;5035479;28;20022;-68
2023/08/16 08:11:59;;;;;;;5.72;2.20;;;23.20;64.90;;;;;;5054612;28;20014;-69
2023/08/16 08:14:25;;;;;;;5.55;1.88;;;23.30;64.40;;;;;;5038004;28;20034;-68
2023/08/16 08:16:52;;;;;;;3.40;1.67;;;23.50;64.00;;;;;;5040647;28;20028;-68
2023/08/16 08:19:17;;;;;;;5.35;2.30;;;23.80;63.40;;;;;;5041642;28;20033;-68
2023/08/16 08:21:44;;;;;;;4.97;1.83;;;24.00;62.60;;;;;;5031725;28;20485;-68
2023/08/16 08:24:10;;;;;;;5.78;1.88;;;24.20;62.00;;;;;;5038251;28;20091;-68
2023/08/16 08:26:36;;;;;;;5.60;1.90;;;24.30;61.70;;;;;;5036389;28;20120;-68
2023/08/16 08:29:02;;;;;;;5.28;1.73;;;24.30;61.50;;;;;;5036140;28;20029;-68
2023/08/16 08:31:28;;;;;;;4.05;1.42;;;24.20;61.50;;;;;;5028657;28;20042;-68
2023/08/16 08:33:54;;;;;;;4.40;1.60;;;24.00;61.80;;;;;;5029465;28;20029;-67
2023/08/16 08:36:20;;;;;;;6.18;1.90;;;24.00;62.00;;;;;;5042016;28;20274;-68
2023/08/16 08:38:46;;;;;;;5.57;2.00;;;23.90;62.20;;;;;;5043872;28;20369;-68
2023/08/16 08:41:12;;;;;;;5.72;1.80;;;23.80;62.20;;;;;;5043399;28;20033;-69
2023/08/16 08:43:39;;;;;;;5.70;1.98;;;23.80;62.20;;;;;;5040048;28;20124;-68
2023/08/16 08:46:06;;;;;;;5.00;1.70;;;23.80;62.40;;;;;;5022742;28;20033;-68
2023/08/16 08:48:32;;;;;;;6.95;2.28;;;23.80;62.60;;;;;;5042306;28;20458;-68
2023/08/16 08:51:00;;;;;;;5.75;1.65;;;23.90;62.70;;;;;;5038727;28;20021;-68
2023/08/16 08:53:27;;;;;;;5.88;2.10;;;24.20;62.60;;;;;;5040375;28;20434;-68
2023/08/16 08:55:55;;;;;;;5.43;2.15;;;24.40;62.10;;;;;;5024779;28;20045;-69
2023/08/16 08:58:22;;;;;;;6.88;2.30;;;24.70;61.80;;;;;;5043660;28;20062;-69
2023/08/16 09:00:49;;;;;;;5.00;1.92;;;24.70;61.50;;;;;;5052395;28;20039;-69
2023/08/16 09:03:21;;;;;;;9.23;2.40;;;24.90;61.40;;;;;;5044202;28;20029;-69
2023/08/16 09:05:53;;;;;;;6.13;2.00;;;25.10;60.70;;;;;;5038618;28;20044;-69
2023/08/16 09:08:22;;;;;;;6.32;2.20;;;25.30;60.90;;;;;;5039354;28;20025;-70
2023/08/16 09:10:50;;;;;;;4.47;1.95;;;25.50;59.90;;;;;;5025244;28;20041;-70
2023/08/16 09:13:16;;;;;;;5.85;2.00;;;25.70;59.60;;;;;;5039653;28;20021;-70
2023/08/16 09:15:43;;;;;;;6.57;2.15;;;25.80;59.30;;;;;;5040730;28;20025;-68
2023/08/16 09:18:17;;;;;;;5.82;2.30;;;25.90;59.10;;;;;;5043910;28;20029;-68
2023/08/16 09:20:44;;;;;;;4.53;1.95;;;26.10;58.80;;;;;;5038653;28;20036;-68
2023/08/16 09:23:13;;;;;;;6.00;2.22;;;26.20;58.80;;;;;;5030393;28;20349;-68
2023/08/16 09:25:39;;;;;;;6.05;2.35;;;26.20;58.50;;;;;;5053197;28;20036;-68
2023/08/16 09:28:10;;;;;;;5.45;2.35;;;26.20;58.40;;;;;;5037574;28;20025;-68
2023/08/16 09:30:36;;;;;;;5.97;2.20;;;26.10;58.20;;;;;;5042610;28;20028;-68
2023/08/16 09:33:02;;;;;;;4.53;2.20;;;26.20;58.20;;;;;;5039312;28;20427;-68
2023/08/16 09:35:48;;;;;;;5.15;1.90;;;26.30;57.70;;;;;;5042039;28;20033;-68
2023/08/16 09:38:17;;;;;;;5.72;1.80;;;26.50;57.10;;;;;;5036201;28;20048;-66
2023/08/16 09:40:48;;;;;;;3.83;1.92;;;26.60;57.10;;;;;;5040516;28;20024;-68
2023/08/16 09:43:13;;;;;;;5.65;2.08;;;26.80;56.80;;;;;;5041830;28;20052;-68
2023/08/16 09:45:40;;;;;;;5.15;1.70;;;26.90;56.40;;;;;;5041807;28;20072;-68
2023/08/16 09:48:08;;;;;;;7.30;1.95;;;27.00;56.30;;;;;;5039165;28;20139;-68
2023/08/16 09:50:35;;;;;;;5.82;1.55;;;27.20;55.90;;;;;;5045051;28;20027;-69
2023/08/16 09:53:05;;;;;;;4.82;1.27;;;27.20;55.50;;;;;;5025234;28;20037;-68
2023/08/16 09:55:33;;;;;;;4.20;1.50;;;27.40;54.90;;;;;;5036707;28;20040;-68
2023/08/16 09:58:00;;;;;;;5.07;1.55;;;27.50;54.80;;;;;;5033374;28;20152;-68
2023/08/16 10:00:30;;;;;;;4.07;1.58;;;27.60;54.80;;;;;;5038341;28;20029;-68
2023/08/16 10:02:57;;;;;;;3.33;1.43;;;27.70;54.60;;;;;;5040918;28;20033;-68
2023/08/16 10:05:24;;;;;;;3.03;1.25;;;27.80;54.10;;;;;;5037755;28;20029;-68
2023/08/16 10:07:51;;;;;;;4.95;1.52;;;27.80;54.00;;;;;;5040238;28;20134;-68
2023/08/16 10:10:17;;;;;;;3.40;1.45;;;27.80;53.80;;;;;;5037276;28;20079;-68
2023/08/16 10:12:45;;;;;;;4.53;1.40;;;27.90;53.40;;;;;;5040814;28;20021;-68
2023/08/16 10:15:11;;;;;;;3.20;1.33;;;27.90;52.90;;;;;;5041009;28;20104;-68
2023/08/16 10:17:39;;;;;;;4.45;1.52;;;27.90;52.40;;;;;;5039656;28;20108;-68
2023/08/16 10:20:14;;;;;;;3.53;1.50;;;27.90;52.10;;;;;;5037334;28;20025;-68
2023/08/16 10:22:43;;;;;;;6.03;1.58;;;27.90;52.10;;;;;;5043559;28;20078;-68
2023/08/16 10:25:15;;;;;;;5.40;1.52;;;28.00;52.20;;;;;;5041427;28;20524;-68
2023/08/16 10:27:45;;;;;;;5.43;1.90;;;28.20;52.40;;;;;;5031618;28;20350;-66
2023/08/16 10:30:24;;;;;;;5.50;1.90;;;28.20;52.40;;;;;;5019850;28;20025;-69
2023/08/16 10:32:57;;;;;;;5.22;1.60;;;28.00;52.30;;;;;;5041763;28;20025;-69
2023/08/16 10:35:23;;;;;;;3.63;1.50;;;27.90;52.50;;;;;;5039755;28;20323;-67
2023/08/16 10:37:53;;;;;;;5.18;1.60;;;27.80;52.80;;;;;;5038513;28;20416;-69
2023/08/16 10:40:20;;;;;;;3.53;1.58;;;27.80;52.80;;;;;;5028275;28;20029;-68
2023/08/16 10:43:06;;;;;;;3.75;1.60;;;27.80;52.80;;;;;;5035672;28;20401;-69
2023/08/16 10:45:36;;;;;;;5.75;1.65;;;27.90;53.10;;;;;;5037307;28;20022;-67
2023/08/16 10:48:15;;;;;;;5.72;1.65;;;27.80;53.10;;;;;;5028731;28;20132;-69
2023/08/16 10:50:42;;;;;;;3.03;1.48;;;27.60;52.80;;;;;;5038889;28;20022;-68
2023/08/16 10:53:08;;;;;;;6.07;2.00;;;27.60;53.30;;;;;;5040853;28;20025;-68
2023/08/16 10:55:35;;;;;;;3.85;1.58;;;27.60;53.30;;;;;;5021917;28;20039;-68
2023/08/16 10:58:02;;;;;;;3.00;1.52;;;27.50;53.10;;;;;;5038708;28;20041;-66
2023/08/16 11:00:32;;;;;;;4.25;1.60;;;27.50;53.40;;;;;;5034834;28;20052;-68
2023/08/16 11:03:01;;;;;;;3.08;1.20;;;27.50;53.40;;;;;;5035876;28;20079;-69
2023/08/16 11:05:30;;;;;;;4.63;1.65;;;27.70;53.50;;;;;;5018184;28;20022;-69
2023/08/16 11:07:59;;;;;;;7.80;1.70;;;27.90;53.00;;;;;;5007687;28;20058;-69
2023/08/16 11:10:43;;;;;;;4.07;1.63;;;28.10;53.00;;;;;;5016708;28;20036;-69
2023/08/16 11:13:10;;;;;;;3.50;1.48;;;28.20;52.40;;;;;;5021531;28;20026;-68
2023/08/16 11:15:36;;;;;;;2.55;1.17;;;28.20;52.30;;;;;;5025073;28;20117;-66
2023/08/16 11:18:05;;;;;;;3.65;1.17;;;28.10;52.30;;;;;;5010140;28;20037;-66
2023/08/16 11:20:31;;;;;;;4.32;1.80;;;28.20;52.30;;;;;;5025431;28;20029;-69
2023/08/16 11:23:00;;;;;;;4.43;1.70;;;28.30;51.70;;;;;;5037591;28;20037;-69
2023/08/16 11:25:35;;;;;;;3.65;1.52;;;28.30;51.30;;;;;;5017847;28;20025;-68
2023/08/16 11:28:04;;;;;;;3.83;1.40;;;28.40;51.00;;;;;;5019523;28;20027;-69
2023/08/16 11:30:34;;;;;;;3.65;1.35;;;28.50;51.00;;;;;;5019473;28;20021;-69
2023/08/16 11:33:00;;;;;;;2.90;1.10;;;28.60;51.10;;;;;;5005402;28;20033;-69
2023/08/16 11:35:26;;;;;;;6.63;1.70;;;28.70;50.80;;;;;;5010644;28;20068;-69
2023/08/16 11:37:52;;;;;;;3.65;1.23;;;28.70;50.50;;;;;;5016291;28;20381;-69
2023/08/16 11:40:24;;;;;;;3.70;1.52;;;28.70;50.30;;;;;;5024536;28;21340;-69
2023/08/16 11:42:53;;;;;;;3.65;1.40;;;28.80;50.10;;;;;;5004296;28;20030;-69
2023/08/16 11:45:24;;;;;;;2.75;1.27;;;28.70;50.00;;;;;;5021890;28;20025;-69
2023/08/16 11:47:53;;;;;;;;;;;28.50;50.00;;;;;;5035036;28;20045;-69
2023/08/16 11:50:20;;;;;;;3.47;1.20;;;28.40;50.50;;;;;;5034524;28;19909;-69
2023/08/16 11:53:03;;;;;;;4.00;1.50;;;28.30;50.60;;;;;;5033431;28;20469;-68
2023/08/16 11:55:30;;;;;;;3.33;1.60;;;28.20;50.80;;;;;;5032352;28;20040;-69
2023/08/16 11:58:10;;;;;;;6.75;2.15;;;28.10;50.90;;;;;;5037680;28;20454;-71
2023/08/16 12:00:39;;;;;;;4.82;1.88;;;28.00;51.20;;;;;;5028480;28;20482;-71
2023/08/16 12:03:10;;;;;;;3.90;1.50;;;28.10;51.60;;;;;;5027821;28;20084;-69
2023/08/16 12:05:38;;;;;;;4.22;1.80;;;28.10;51.60;;;;;;5019117;28;20057;-67
2023/08/16 12:08:08;;;;;;;7.40;1.85;;;28.00;51.60;;;;;;5027171;28;20033;-67
2023/08/16 12:10:35;;;;;;;4.80;1.58;;;28.00;51.60;;;;;;5037838;28;20025;-68
2023/08/16 12:13:12;;;;;;;3.35;1.48;;;28.00;51.70;;;;;;5038881;28;20033;-69
2023/08/16 12:15:39;;;;;;;4.80;1.80;;;28.00;51.70;;;;;;5037497;28;20457;-69
2023/08/16 12:18:05;;;;;;;5.00;1.70;;;27.90;51.80;;;;;;5029508;28;20029;-69
2023/08/16 12:20:31;;;;;;;6.68;1.88;;;27.80;51.70;;;;;;5037954;28;20025;-69
2023/08/16 12:22:59;;;;;;;3.72;1.60;;;27.70;51.60;;;;;;5029481;28;20481;-69
2023/08/16 12:25:25;;;;;;;3.17;1.50;;;27.60;51.70;;;;;;5013128;28;20057;-69
2023/08/16 12:27:51;;;;;;;3.65;1.45;;;27.50;51.80;;;;;;5031804;28;20111;-69
2023/08/16 12:30:17;;;;;;;4.47;1.50;;;27.40;51.90;;;;;;5029847;28;20378;-69
2023/08/16 12:32:43;;;;;;;3.47;1.63;;;27.40;51.80;;;;;;5027314;28;21060;-71
2023/08/16 12:35:08;;;;;;;4.45;1.42;;;27.40;51.50;;;;;;5019081;28;20428;-72
2023/08/16 12:37:35;;;;;;;2.38;1.30;;;27.40;51.20;;;;;;5057262;28;20026;-69
2023/08/16 12:40:01;;;;;;;2.70;1.40;;;27.50;51.30;;;;;;5036677;28;20041;-67
2023/08/16 12:42:27;;;;;;;5.15;1.50;;;27.50;51.40;;;;;;5032035;28;20048;-66
2023/08/16 12:44:52;;;;;;;3.22;1.33;;;27.40;51.40;;;;;;5029350;28;20038;-69
2023/08/16 12:47:18;;;;;;;3.97;1.25;;;27.30;51.30;;;;;;5035836;28;20052;-67
2023/08/16 12:49:44;;;;;;;4.85;1.48;;;27.30;51.60;;;;;;5037481;28;20030;-67